createdAt,value
2022-09-20T00:02:20.936Z,17.26
2022-09-20T00:07:22.485Z,17.29
2022-09-20T00:12:24.127Z,17.35
2022-09-20T00:17:25.613Z,17.29
2022-09-20T00:22:27.519Z,17.12
2022-09-20T00:27:29.035Z,17.12
2022-09-20T00:32:31.240Z,17.30
2022-09-20T00:37:33.008Z,17.22
2022-09-20T00:42:34.496Z,17.38
2022-09-20T00:47:48.062Z,17.30
2022-09-20T00:52:51.895Z,17.32
2022-09-20T00:57:53.478Z,17.29
2022-09-20T01:02:57.550Z,17.21
2022-09-20T01:07:59.024Z,17.37
2022-09-20T01:13:00.742Z,17.00
2022-09-20T01:18:02.206Z,17.17
2022-09-20T01:23:33.321Z,17.20
2022-09-20T01:28:34.818Z,17.13
2022-09-20T01:33:44.635Z,17.22
2022-09-20T01:39:02.995Z,17.26
2022-09-20T01:44:17.719Z,17.38
2022-09-20T01:49:45.233Z,17.54
2022-09-20T01:55:24.157Z,17.54
2022-09-20T02:00:26.771Z,17.52
2022-09-20T02:05:58.796Z,17.20
2022-09-20T02:11:07.215Z,16.63
2022-09-20T02:16:32.613Z,16.20
2022-09-20T02:21:49.162Z,16.01
2022-09-20T02:27:18.332Z,15.99
2022-09-20T02:32:45.301Z,15.90
2022-09-20T02:38:12.663Z,15.69
2022-09-20T02:43:41.928Z,15.72
2022-09-20T02:48:48.349Z,15.54
2022-09-20T02:54:03.663Z,15.80
2022-09-20T02:59:27.110Z,15.77
2022-09-20T03:05:05.622Z,16.28
2022-09-20T03:10:32.617Z,16.61
2022-09-20T03:15:58.191Z,16.31
2022-09-20T03:21:22.728Z,16.50
2022-09-20T03:26:50.771Z,16.56
2022-09-20T03:32:29.864Z,16.79
2022-09-20T03:37:46.346Z,16.78
2022-09-20T03:42:49.436Z,16.60
2022-09-20T03:48:06.043Z,16.66
2022-09-20T03:53:26.110Z,16.54
2022-09-20T03:58:39.778Z,16.40
2022-09-20T04:04:04.312Z,16.72
2022-09-20T04:09:43.200Z,16.58
2022-09-20T04:14:49.204Z,16.61
2022-09-20T04:20:03.791Z,16.34
2022-09-20T04:25:43.741Z,16.14
2022-09-20T04:30:46.573Z,16.28
2022-09-20T04:36:28.968Z,16.83
2022-09-20T04:41:51.786Z,16.58
2022-09-20T04:47:31.751Z,16.30
2022-09-20T04:52:51.423Z,16.07
2022-09-20T04:58:10.885Z,16.42
2022-09-20T05:03:40.234Z,16.79
2022-09-20T05:08:53.259Z,16.88
2022-09-20T05:13:57.181Z,16.51
2022-09-20T05:19:26.425Z,16.62
2022-09-20T05:25:07.032Z,16.63
2022-09-20T05:30:19.348Z,16.93
2022-09-20T05:35:30.315Z,17.05
2022-09-20T05:40:35.775Z,17.25
2022-09-20T05:46:02.742Z,17.00
2022-09-20T05:51:09.847Z,17.39
2022-09-20T05:56:23.527Z,17.45
2022-09-20T06:01:32.741Z,17.31
2022-09-20T06:06:38.495Z,17.18
2022-09-20T06:12:03.195Z,17.16
2022-09-20T06:17:46.788Z,17.21
2022-09-20T06:22:50.303Z,16.84
2022-09-20T06:27:54.109Z,16.66
2022-09-20T06:33:00.063Z,17.02
2022-09-20T06:38:41.390Z,17.09
2022-09-20T06:43:43.046Z,17.37
2022-09-20T06:48:44.611Z,17.28
2022-09-20T06:53:46.082Z,17.05
2022-09-20T06:58:47.561Z,16.66
2022-09-20T07:03:49.040Z,16.19
2022-09-20T07:08:50.523Z,17.22
2022-09-20T07:13:53.788Z,17.52
2022-09-20T07:18:56.707Z,17.72
2022-09-20T07:23:58.298Z,16.96
2022-09-20T07:28:59.816Z,16.89
2022-09-20T07:34:01.283Z,16.73
2022-09-20T07:39:02.765Z,16.90
2022-09-20T07:44:24.299Z,17.12
2022-09-20T07:49:26.552Z,17.42
2022-09-20T07:54:28.190Z,17.48
2022-09-20T07:59:29.665Z,17.53
2022-09-20T08:04:31.152Z,17.41
2022-09-20T08:09:32.632Z,17.51
2022-09-20T08:14:34.164Z,17.68
2022-09-20T08:19:36.420Z,17.95
2022-09-20T08:24:38.177Z,18.31
2022-09-20T08:29:40.487Z,18.46
2022-09-20T08:34:41.958Z,18.53
2022-09-20T08:39:59.367Z,18.92
2022-09-20T08:45:02.807Z,18.83
2022-09-20T08:50:17.520Z,19.08
2022-09-20T08:55:27.998Z,19.28
2022-09-20T09:00:32.415Z,19.15
2022-09-20T09:05:35.596Z,19.35
2022-09-20T09:10:45.377Z,19.38
2022-09-20T09:15:47.548Z,19.32
2022-09-20T09:20:49.020Z,19.30
2022-09-20T09:25:50.500Z,19.36
2022-09-20T09:30:52.002Z,19.30
2022-09-20T09:35:56.336Z,19.51
2022-09-20T09:40:59.396Z,19.61
2022-09-20T09:46:21.540Z,19.72
2022-09-20T09:51:23.537Z,19.48
2022-09-20T09:56:57.285Z,19.70
2022-09-20T10:02:18.595Z,19.92
2022-09-20T10:07:38.062Z,20.33
2022-09-20T10:12:58.064Z,20.36
2022-09-20T10:18:31.310Z,20.26
2022-09-20T10:24:03.619Z,20.57
2022-09-20T10:29:17.705Z,20.81
2022-09-20T10:34:37.119Z,21.01
2022-09-20T10:39:38.799Z,21.07
2022-09-20T10:44:50.023Z,21.24
2022-09-20T10:50:14.557Z,21.40
2022-09-20T10:55:34.303Z,21.56
2022-09-20T11:01:00.768Z,21.60
2022-09-20T11:06:29.667Z,21.65
2022-09-20T11:11:34.707Z,22.00
2022-09-20T11:16:57.764Z,21.99
2022-09-20T11:22:11.725Z,21.75
2022-09-20T11:27:25.594Z,21.21
2022-09-20T11:32:32.943Z,22.23
2022-09-20T11:37:36.691Z,22.59
2022-09-20T11:42:38.199Z,22.68
2022-09-20T11:47:54.933Z,22.99
2022-09-20T11:53:21.881Z,22.80
2022-09-20T11:58:23.356Z,23.18
2022-09-20T12:03:33.584Z,22.80
2022-09-20T12:08:39.661Z,22.40
2022-09-20T12:13:55.758Z,22.65
2022-09-20T12:19:01.203Z,22.03
2022-09-20T12:24:17.180Z,22.74
2022-09-20T12:29:24.383Z,22.47
2022-09-20T12:34:26.048Z,22.33
2022-09-20T12:39:37.531Z,21.90
2022-09-20T12:44:50.873Z,21.85
2022-09-20T12:50:12.703Z,22.54
2022-09-20T12:55:32.298Z,22.89
2022-09-20T13:00:42.698Z,22.47
2022-09-20T13:05:46.065Z,22.43
2022-09-20T13:11:17.290Z,22.53
2022-09-20T13:16:37.196Z,21.89
2022-09-20T13:21:40.759Z,22.50
2022-09-20T13:26:44.775Z,22.15
2022-09-20T13:31:46.344Z,22.01
2022-09-20T13:36:49.579Z,22.52
2022-09-20T13:41:52.993Z,22.56
2022-09-20T13:46:54.315Z,22.51
2022-09-20T13:51:55.819Z,22.62
2022-09-20T13:57:00.081Z,22.54
2022-09-20T14:02:01.576Z,22.56
2022-09-20T14:07:05.731Z,22.48
2022-09-20T14:12:07.349Z,22.51
2022-09-20T14:17:09.570Z,22.20
2022-09-20T14:22:18.975Z,22.28
2022-09-20T14:27:21.369Z,22.59
2022-09-20T14:32:31.132Z,22.22
2022-09-20T14:37:33.461Z,22.36
2022-09-20T14:42:56.075Z,21.87
2022-09-20T14:48:00.782Z,21.65
2022-09-20T14:53:05.047Z,21.74
2022-09-20T14:58:11.264Z,21.94
2022-09-20T15:03:12.822Z,21.60
2022-09-20T15:08:15.410Z,21.75
2022-09-20T15:13:16.935Z,21.63
2022-09-20T15:18:21.617Z,21.60
2022-09-20T15:23:23.103Z,21.66
2022-09-20T15:28:26.543Z,21.47
2022-09-20T15:33:29.755Z,21.44
2022-09-20T15:38:31.249Z,21.53
2022-09-20T15:43:32.738Z,21.22
2022-09-20T15:48:34.207Z,21.10
2022-09-20T15:53:36.907Z,21.05
2022-09-20T15:58:38.402Z,21.01
2022-09-20T16:03:39.931Z,21.00
2022-09-20T16:08:42.095Z,20.93
2022-09-20T16:13:43.477Z,21.03
2022-09-20T16:19:03.560Z,20.87
2022-09-20T16:24:05.658Z,20.97
2022-09-20T16:29:11.686Z,20.89
2022-09-20T16:34:23.850Z,20.88
2022-09-20T16:39:28.944Z,20.63
2022-09-20T16:44:34.662Z,20.72
2022-09-20T16:49:36.727Z,20.57
2022-09-20T16:54:38.235Z,20.57
2022-09-20T16:59:39.742Z,20.60
2022-09-20T17:04:43.602Z,20.56
2022-09-20T17:09:45.183Z,20.59
2022-09-20T17:14:46.667Z,20.50
2022-09-20T17:19:48.161Z,20.48
2022-09-20T17:24:49.915Z,20.35
2022-09-20T17:29:51.448Z,20.13
2022-09-20T17:34:52.981Z,20.09
2022-09-20T17:39:54.632Z,20.08
2022-09-20T17:44:56.103Z,19.40
2022-09-20T17:49:57.656Z,19.53
2022-09-20T17:54:59.135Z,19.62
2022-09-20T18:00:00.726Z,19.49
2022-09-20T18:05:02.236Z,19.25
2022-09-20T18:10:03.948Z,19.31
2022-09-20T18:15:06.153Z,19.02
2022-09-20T18:20:08.081Z,19.31
2022-09-20T18:25:09.764Z,19.28
2022-09-20T18:30:11.537Z,19.17
2022-09-20T18:35:13.075Z,19.00
2022-09-20T18:40:15.060Z,18.94
2022-09-20T18:45:17.495Z,19.03
2022-09-20T18:50:18.943Z,19.11
2022-09-20T18:55:22.297Z,19.18
2022-09-20T19:00:23.900Z,18.86
2022-09-20T19:05:29.339Z,18.93
2022-09-20T19:10:39.546Z,19.21
2022-09-20T19:16:13.321Z,19.35
2022-09-20T19:21:45.817Z,19.11
2022-09-20T19:26:47.533Z,19.11
2022-09-20T19:31:50.199Z,18.98
2022-09-20T19:36:59.891Z,19.18
2022-09-20T19:42:14.712Z,19.11
2022-09-20T19:47:47.186Z,19.05
2022-09-20T19:52:49.515Z,18.97
2022-09-20T19:57:51.048Z,18.96
2022-09-20T20:02:54.015Z,18.92
2022-09-20T20:08:33.008Z,18.82
2022-09-20T20:13:59.233Z,18.85
2022-09-20T20:19:40.016Z,18.79
2022-09-20T20:24:47.753Z,18.59
2022-09-20T20:29:49.444Z,18.71
2022-09-20T20:34:50.941Z,18.83
2022-09-20T20:39:52.794Z,18.87
2022-09-20T20:44:54.276Z,18.87
2022-09-20T20:49:55.759Z,18.73
2022-09-20T20:54:59.941Z,18.74
2022-09-20T21:00:01.697Z,18.81
2022-09-20T21:05:03.210Z,18.83
2022-09-20T21:10:05.078Z,18.76
2022-09-20T21:15:07.814Z,18.74
2022-09-20T21:20:10.047Z,18.71
2022-09-20T21:25:11.520Z,18.79
2022-09-20T21:30:13.218Z,18.76
2022-09-20T21:35:14.971Z,18.61
2022-09-20T21:40:16.467Z,18.59
2022-09-20T21:45:20.894Z,18.65
2022-09-20T21:50:22.741Z,18.43
2022-09-20T21:55:24.212Z,18.18
2022-09-20T22:00:27.152Z,18.21
2022-09-20T22:05:28.617Z,18.15
2022-09-20T22:10:30.130Z,17.86
2022-09-20T22:15:31.796Z,17.68
2022-09-20T22:20:33.314Z,17.52
2022-09-20T22:25:34.784Z,17.57
2022-09-20T22:30:36.351Z,17.22
2022-09-20T22:35:43.278Z,17.42
2022-09-20T22:40:57.534Z,17.38
2022-09-20T22:46:21.207Z,17.24
2022-09-20T22:51:23.460Z,17.28
2022-09-20T22:56:31.743Z,17.50
2022-09-20T23:01:37.654Z,17.54
2022-09-20T23:06:40.664Z,17.39
2022-09-20T23:11:42.712Z,17.19
2022-09-20T23:16:44.689Z,16.99
2022-09-20T23:21:46.292Z,16.78
2022-09-20T23:26:47.820Z,17.18
2022-09-20T23:31:49.941Z,17.31
2022-09-20T23:36:51.407Z,16.74
2022-09-20T23:41:52.880Z,16.71
2022-09-20T23:46:54.419Z,16.78
2022-09-20T23:51:55.889Z,16.53
2022-09-20T23:56:57.363Z,16.56
